createdAt,value
2023-05-19T00:02:23.413Z,2.97
2023-05-19T00:04:50.109Z,2.63
2023-05-19T00:07:20.433Z,3.10
2023-05-19T00:09:47.265Z,2.35
2023-05-19T00:12:14.123Z,2.80
2023-05-19T00:14:41.012Z,2.83
2023-05-19T00:17:08.113Z,2.70
2023-05-19T00:19:34.666Z,2.70
2023-05-19T00:22:01.199Z,3.17
2023-05-19T00:24:27.835Z,3.58
2023-05-19T00:26:54.479Z,2.58
2023-05-19T00:29:21.044Z,2.50
2023-05-19T00:31:47.932Z,2.58
2023-05-19T00:34:14.545Z,2.50
2023-05-19T00:36:41.212Z,2.28
2023-05-19T00:39:07.799Z,2.70
2023-05-19T00:41:35.303Z,2.80
2023-05-19T00:44:02.015Z,2.90
2023-05-19T00:46:30.305Z,2.53
2023-05-19T00:48:57.034Z,2.65
2023-05-19T00:51:27.239Z,2.78
2023-05-19T00:53:54.182Z,3.00
2023-05-19T00:56:21.762Z,2.40
2023-05-19T00:58:50.899Z,3.13
2023-05-19T01:01:17.748Z,2.38
2023-05-19T01:03:45.109Z,2.50
2023-05-19T01:06:12.247Z,2.70
2023-05-19T01:08:39.464Z,2.72
2023-05-19T01:11:07.596Z,2.78
2023-05-19T01:13:36.135Z,2.80
2023-05-19T01:16:09.888Z,2.65
2023-05-19T01:19:18.134Z,2.85
2023-05-19T01:22:03.301Z,2.92
2023-05-19T01:25:07.056Z,2.72
2023-05-19T01:27:39.454Z,2.95
2023-05-19T01:30:25.314Z,3.05
2023-05-19T01:32:54.673Z,3.00
2023-05-19T01:35:26.041Z,2.55
2023-05-19T01:37:57.457Z,2.83
2023-05-19T01:40:25.635Z,2.90
2023-05-19T01:42:57.796Z,2.80
2023-05-19T01:45:28.219Z,3.17
2023-05-19T01:47:57.649Z,3.20
2023-05-19T01:50:24.604Z,2.92
2023-05-19T01:52:52.173Z,2.70
2023-05-19T01:55:19.574Z,2.97
2023-05-19T01:58:00.690Z,3.17
2023-05-19T02:00:42.331Z,2.70
2023-05-19T02:03:33.842Z,2.53
2023-05-19T02:06:18.443Z,2.88
2023-05-19T02:08:54.019Z,3.38
2023-05-19T02:11:32.272Z,3.28
2023-05-19T02:14:03.423Z,2.63
2023-05-19T02:16:30.399Z,3.13
2023-05-19T02:18:57.374Z,2.97
2023-05-19T02:21:24.092Z,3.20
2023-05-19T02:23:50.726Z,3.25
2023-05-19T02:26:19.755Z,3.20
2023-05-19T02:28:46.353Z,2.72
2023-05-19T02:31:12.917Z,3.15
2023-05-19T02:33:39.518Z,3.17
2023-05-19T02:36:06.428Z,2.55
2023-05-19T02:38:33.020Z,3.05
2023-05-19T02:40:59.621Z,2.65
2023-05-19T02:43:26.203Z,3.30
2023-05-19T02:45:52.848Z,2.53
2023-05-19T02:48:19.592Z,3.72
2023-05-19T02:50:46.652Z,3.17
2023-05-19T02:53:13.332Z,2.60
2023-05-19T02:55:40.017Z,2.92
2023-05-19T02:58:06.601Z,2.30
2023-05-19T03:00:33.389Z,2.33
2023-05-19T03:03:02.712Z,3.03
2023-05-19T03:05:30.408Z,3.05
2023-05-19T03:07:57.142Z,3.40
2023-05-19T03:10:23.832Z,3.00
2023-05-19T03:12:50.965Z,2.88
2023-05-19T03:15:18.765Z,2.42
2023-05-19T03:17:45.620Z,3.28
2023-05-19T03:20:12.575Z,3.10
2023-05-19T03:22:39.229Z,3.00
2023-05-19T03:25:06.032Z,3.13
2023-05-19T03:27:32.936Z,3.25
2023-05-19T03:29:59.568Z,2.80
2023-05-19T03:32:26.715Z,2.80
2023-05-19T03:34:53.396Z,2.60
2023-05-19T03:37:20.301Z,2.90
2023-05-19T03:39:46.894Z,2.63
2023-05-19T03:42:13.759Z,2.83
2023-05-19T03:44:40.517Z,2.75
2023-05-19T03:47:07.332Z,2.70
2023-05-19T03:49:36.685Z,2.53
2023-05-19T03:52:38.634Z,2.85
2023-05-19T03:55:20.246Z,2.72
2023-05-19T03:57:47.304Z,3.00
2023-05-19T04:00:14.576Z,2.90
2023-05-19T04:02:41.290Z,2.83
2023-05-19T04:05:08.548Z,3.55
2023-05-19T04:07:37.130Z,2.95
2023-05-19T04:10:05.586Z,3.30
2023-05-19T04:12:33.025Z,2.97
2023-05-19T04:14:59.797Z,2.83
2023-05-19T04:17:27.317Z,2.80
2023-05-19T04:19:55.242Z,3.40
2023-05-19T04:22:22.452Z,3.30
2023-05-19T04:24:50.484Z,2.90
2023-05-19T04:27:18.228Z,2.38
2023-05-19T04:29:46.114Z,3.20
2023-05-19T04:32:17.429Z,2.67
2023-05-19T04:34:45.978Z,2.58
2023-05-19T04:37:17.960Z,2.80
2023-05-19T04:39:45.461Z,2.75
2023-05-19T04:42:19.245Z,2.80
2023-05-19T04:44:49.210Z,2.83
2023-05-19T04:47:16.238Z,2.63
2023-05-19T04:49:43.124Z,2.67
2023-05-19T04:52:11.114Z,2.20
2023-05-19T04:54:39.445Z,2.47
2023-05-19T04:57:06.989Z,3.10
2023-05-19T04:59:37.284Z,2.90
2023-05-19T05:02:06.343Z,2.30
2023-05-19T05:04:34.228Z,2.75
2023-05-19T05:07:01.271Z,2.30
2023-05-19T05:09:28.925Z,2.53
2023-05-19T05:11:58.742Z,2.88
2023-05-19T05:14:26.159Z,2.78
2023-05-19T05:16:53.505Z,3.30
2023-05-19T05:19:23.653Z,2.45
2023-05-19T05:21:51.554Z,2.65
2023-05-19T05:24:19.879Z,2.80
2023-05-19T05:26:53.275Z,2.58
2023-05-19T05:29:21.193Z,2.83
2023-05-19T05:31:48.050Z,2.70
2023-05-19T05:34:14.814Z,2.50
2023-05-19T05:36:42.620Z,3.10
2023-05-19T05:39:09.680Z,2.95
2023-05-19T05:41:37.903Z,2.58
2023-05-19T05:44:10.261Z,2.80
2023-05-19T05:46:39.497Z,3.25
2023-05-19T05:49:06.478Z,2.97
2023-05-19T05:51:33.760Z,4.25
2023-05-19T05:54:02.089Z,2.72
2023-05-19T05:56:37.329Z,2.88
2023-05-19T05:59:05.935Z,2.83
2023-05-19T06:01:34.288Z,3.05
2023-05-19T06:04:03.678Z,3.13
2023-05-19T06:06:31.567Z,2.65
2023-05-19T06:08:59.399Z,2.80
2023-05-19T06:11:28.791Z,3.03
2023-05-19T06:13:58.018Z,2.58
2023-05-19T06:16:48.229Z,2.50
2023-05-19T06:19:16.414Z,3.17
2023-05-19T06:21:43.779Z,2.50
2023-05-19T06:24:11.354Z,2.92
2023-05-19T06:26:38.261Z,2.92
2023-05-19T06:29:04.930Z,2.85
2023-05-19T06:31:33.417Z,2.90
2023-05-19T06:34:12.187Z,2.20
2023-05-19T06:36:41.319Z,3.00
2023-05-19T06:39:08.249Z,2.95
2023-05-19T06:41:35.829Z,2.78
2023-05-19T06:44:04.160Z,2.70
2023-05-19T06:46:33.166Z,3.22
2023-05-19T06:49:00.122Z,2.60
2023-05-19T06:51:30.084Z,3.30
2023-05-19T06:53:57.039Z,3.25
2023-05-19T06:56:24.216Z,2.55
2023-05-19T06:58:51.203Z,3.05
2023-05-19T07:01:19.833Z,3.40
2023-05-19T07:03:53.031Z,3.35
2023-05-19T07:06:20.978Z,3.22
2023-05-19T07:08:48.284Z,2.88
2023-05-19T07:11:15.305Z,3.22
2023-05-19T07:13:43.033Z,2.88
2023-05-19T07:16:10.647Z,2.97
2023-05-19T07:18:37.703Z,2.85
2023-05-19T07:21:07.508Z,2.70
2023-05-19T07:23:34.248Z,3.40
2023-05-19T07:26:01.156Z,3.05
2023-05-19T07:28:27.754Z,2.83
2023-05-19T07:30:56.603Z,3.20
2023-05-19T07:33:23.495Z,3.42
2023-05-19T07:35:54.397Z,3.33
2023-05-19T07:38:21.433Z,3.22
2023-05-19T07:40:48.085Z,2.42
2023-05-19T07:43:14.697Z,3.28
2023-05-19T07:45:41.528Z,3.40
2023-05-19T07:48:08.474Z,3.13
2023-05-19T07:50:35.144Z,2.97
2023-05-19T07:53:02.215Z,3.05
2023-05-19T07:55:28.833Z,3.00
2023-05-19T07:57:56.174Z,3.67
2023-05-19T08:00:22.810Z,3.08
2023-05-19T08:02:49.429Z,3.40
2023-05-19T08:05:16.112Z,2.72
2023-05-19T08:07:42.720Z,2.85
2023-05-19T08:10:09.435Z,3.05
2023-05-19T08:12:36.113Z,3.00
2023-05-19T08:15:02.752Z,4.05
2023-05-19T08:17:29.445Z,2.85
2023-05-19T08:19:56.192Z,3.13
2023-05-19T08:22:22.934Z,3.28
2023-05-19T08:24:51.746Z,3.10
2023-05-19T08:27:18.445Z,3.40
2023-05-19T08:29:45.311Z,3.30
2023-05-19T08:32:13.379Z,3.33
2023-05-19T08:34:41.192Z,3.47
2023-05-19T08:37:08.020Z,3.63
2023-05-19T08:39:34.930Z,3.78
2023-05-19T08:42:02.441Z,2.90
2023-05-19T08:44:30.812Z,3.05
2023-05-19T08:47:02.646Z,3.25
2023-05-19T08:49:33.241Z,2.45
2023-05-19T08:52:19.507Z,3.20
2023-05-19T08:54:53.229Z,2.92
2023-05-19T08:57:21.372Z,3.00
2023-05-19T08:59:49.381Z,3.30
2023-05-19T09:02:16.640Z,3.03
2023-05-19T09:04:46.113Z,3.40
2023-05-19T09:07:14.835Z,2.85
2023-05-19T09:09:44.576Z,2.78
2023-05-19T09:12:11.706Z,3.75
2023-05-19T09:14:38.493Z,2.45
2023-05-19T09:17:05.961Z,2.38
2023-05-19T09:19:32.936Z,3.17
2023-05-19T09:22:01.243Z,4.38
2023-05-19T09:24:28.400Z,2.90
2023-05-19T09:27:00.488Z,3.15
2023-05-19T09:29:27.205Z,3.15
2023-05-19T09:32:00.517Z,2.92
2023-05-19T09:34:27.754Z,2.85
2023-05-19T09:36:54.547Z,2.90
2023-05-19T09:39:22.809Z,3.00
2023-05-19T09:41:54.279Z,3.03
2023-05-19T09:44:21.146Z,2.58
2023-05-19T09:46:49.592Z,2.92
2023-05-19T09:49:25.689Z,3.00
2023-05-19T09:51:56.694Z,3.40
2023-05-19T09:54:24.912Z,3.47
2023-05-19T09:57:03.578Z,2.90
2023-05-19T09:59:33.557Z,3.33
2023-05-19T10:02:01.452Z,3.00
2023-05-19T10:04:29.949Z,4.07
2023-05-19T10:06:59.640Z,2.83
2023-05-19T10:09:28.165Z,3.30
2023-05-19T10:11:56.643Z,3.03
2023-05-19T10:14:24.887Z,2.92
2023-05-19T10:16:52.968Z,3.20
2023-05-19T10:19:24.423Z,2.80
2023-05-19T10:24:18.995Z,2.88
2023-05-19T10:26:49.539Z,3.15
2023-05-19T10:29:21.137Z,2.55
2023-05-19T10:34:37.477Z,3.25
2023-05-19T10:37:17.189Z,3.10
2023-05-19T10:39:44.827Z,3.00
2023-05-19T10:42:17.369Z,2.40
2023-05-19T10:45:16.977Z,2.60
2023-05-19T10:47:44.204Z,4.30
2023-05-19T10:50:11.178Z,3.00
2023-05-19T10:52:39.538Z,2.63
2023-05-19T10:55:17.771Z,4.15
2023-05-19T10:57:56.793Z,3.35
2023-05-19T11:00:27.981Z,3.20
2023-05-19T11:02:57.876Z,2.92
2023-05-19T11:05:30.501Z,3.22
2023-05-19T11:08:05.756Z,2.88
2023-05-19T11:10:32.624Z,3.20
2023-05-19T11:12:59.435Z,2.88
2023-05-19T11:15:30.475Z,3.38
2023-05-19T11:17:57.466Z,3.25
2023-05-19T11:20:26.412Z,2.60
2023-05-19T11:23:18.524Z,2.70
2023-05-19T11:25:47.606Z,3.05
2023-05-19T11:28:20.136Z,2.85
2023-05-19T11:30:52.565Z,3.10
2023-05-19T11:33:20.639Z,2.92
2023-05-19T11:35:51.443Z,2.75
2023-05-19T11:38:19.433Z,3.03
2023-05-19T11:40:47.736Z,2.85
2023-05-19T11:43:14.435Z,2.40
2023-05-19T11:45:41.608Z,2.78
2023-05-19T11:48:12.483Z,2.83
2023-05-19T11:50:41.509Z,2.78
2023-05-19T11:53:08.224Z,2.85
2023-05-19T11:55:34.864Z,3.40
2023-05-19T11:58:05.418Z,2.92
2023-05-19T12:00:39.001Z,3.38
2023-05-19T12:03:06.268Z,2.60
2023-05-19T12:05:39.941Z,3.25
2023-05-19T12:08:08.975Z,2.90
2023-05-19T12:10:35.843Z,2.85
2023-05-19T12:13:03.169Z,3.90
2023-05-19T12:15:31.689Z,3.05
2023-05-19T12:18:00.672Z,3.38
2023-05-19T12:20:29.055Z,2.85
2023-05-19T12:22:56.395Z,3.22
2023-05-19T12:25:23.828Z,3.08
2023-05-19T12:27:52.715Z,3.25
2023-05-19T12:30:26.301Z,2.50
2023-05-19T12:32:54.250Z,3.53
2023-05-19T12:35:23.274Z,3.45
2023-05-19T12:37:50.696Z,3.13
2023-05-19T12:40:17.549Z,2.65
2023-05-19T12:42:48.762Z,3.22
2023-05-19T12:45:15.365Z,2.55
2023-05-19T12:47:42.067Z,3.20
2023-05-19T12:50:10.218Z,3.22
2023-05-19T12:52:45.758Z,3.13
2023-05-19T12:55:13.957Z,3.42
2023-05-19T12:57:42.839Z,2.83
2023-05-19T13:00:20.967Z,3.25
2023-05-19T13:02:56.801Z,2.92
2023-05-19T13:05:24.043Z,3.13
2023-05-19T13:07:55.574Z,3.42
2023-05-19T13:12:48.865Z,3.72
2023-05-19T13:15:15.566Z,3.67
2023-05-19T13:17:42.859Z,3.33
2023-05-19T13:20:10.011Z,3.00
2023-05-19T13:22:36.622Z,3.47
2023-05-19T13:25:03.240Z,3.70
2023-05-19T13:27:30.004Z,3.45
2023-05-19T13:29:56.670Z,3.65
2023-05-19T13:32:24.174Z,3.70
2023-05-19T13:34:50.799Z,3.05
2023-05-19T13:37:17.486Z,3.55
2023-05-19T13:39:44.117Z,3.30
2023-05-19T13:42:10.681Z,3.65
2023-05-19T13:44:37.558Z,3.72
2023-05-19T13:47:04.494Z,3.55
2023-05-19T13:49:31.212Z,3.10
2023-05-19T13:51:58.355Z,3.25
2023-05-19T13:54:25.063Z,3.30
2023-05-19T13:56:51.816Z,4.07
2023-05-19T13:59:18.615Z,3.75
2023-05-19T14:01:45.515Z,3.90
2023-05-19T14:04:12.415Z,3.70
2023-05-19T14:06:41.118Z,3.30
2023-05-19T14:09:07.859Z,3.42
2023-05-19T14:11:34.440Z,3.60
2023-05-19T14:14:03.337Z,3.63
2023-05-19T14:16:30.538Z,3.53
2023-05-19T14:18:57.306Z,2.88
2023-05-19T14:21:24.713Z,3.35
2023-05-19T14:23:51.869Z,3.60
2023-05-19T14:26:19.657Z,3.55
2023-05-19T14:28:46.260Z,3.40
2023-05-19T14:31:13.874Z,2.75
2023-05-19T14:33:41.536Z,4.15
2023-05-19T14:36:09.152Z,3.13
2023-05-19T14:38:36.151Z,2.63
2023-05-19T14:41:03.268Z,3.08
2023-05-19T14:43:29.860Z,2.90
2023-05-19T14:45:57.008Z,2.90
2023-05-19T14:48:23.625Z,3.33
2023-05-19T14:50:50.581Z,2.90
2023-05-19T14:53:17.566Z,3.50
2023-05-19T14:55:44.264Z,2.85
2023-05-19T14:58:26.700Z,3.35
2023-05-19T15:00:54.001Z,2.78
2023-05-19T15:03:20.713Z,3.10
2023-05-19T15:05:47.617Z,3.60
2023-05-19T15:08:14.450Z,2.72
2023-05-19T15:10:41.154Z,3.28
2023-05-19T15:13:07.741Z,3.00
2023-05-19T15:15:35.454Z,3.35
2023-05-19T15:18:02.146Z,3.10
2023-05-19T15:20:29.616Z,3.20
2023-05-19T15:22:56.413Z,3.42
2023-05-19T15:25:23.054Z,3.17
2023-05-19T15:27:49.709Z,2.90
2023-05-19T15:30:17.791Z,3.15
2023-05-19T15:32:45.147Z,3.30
2023-05-19T15:35:11.787Z,3.35
2023-05-19T15:37:38.412Z,2.63
2023-05-19T15:40:06.093Z,2.80
2023-05-19T15:42:32.917Z,3.40
2023-05-19T15:44:59.542Z,2.95
2023-05-19T15:47:26.189Z,3.28
2023-05-19T15:49:52.797Z,3.40
2023-05-19T15:52:19.418Z,3.05
2023-05-19T15:54:46.704Z,3.38
2023-05-19T15:57:13.568Z,3.05
2023-05-19T15:59:40.229Z,3.03
2023-05-19T16:02:08.145Z,3.15
2023-05-19T16:04:35.155Z,2.92
2023-05-19T16:07:01.791Z,3.80
2023-05-19T16:09:28.373Z,3.35
2023-05-19T16:11:55.069Z,3.90
2023-05-19T16:14:21.803Z,3.10
2023-05-19T16:16:48.494Z,3.42
2023-05-19T16:19:15.280Z,4.13
2023-05-19T16:21:41.906Z,3.30
2023-05-19T16:24:08.483Z,3.88
2023-05-19T16:26:35.170Z,3.05
2023-05-19T16:29:01.781Z,4.20
2023-05-19T16:31:28.498Z,3.60
2023-05-19T16:33:55.352Z,3.85
2023-05-19T16:36:22.834Z,3.92
2023-05-19T16:38:49.599Z,3.40
2023-05-19T16:41:16.268Z,3.47
2023-05-19T16:43:42.992Z,4.03
2023-05-19T16:46:12.103Z,3.80
2023-05-19T16:48:38.905Z,4.50
2023-05-19T16:51:05.673Z,4.38
2023-05-19T16:53:32.582Z,3.45
2023-05-19T16:55:59.327Z,3.58
2023-05-19T16:58:26.566Z,3.08
2023-05-19T17:00:54.482Z,3.90
2023-05-19T17:03:21.367Z,3.53
2023-05-19T17:05:48.305Z,7.45
2023-05-19T17:08:14.909Z,5.22
2023-05-19T17:10:41.547Z,4.00
2023-05-19T17:13:08.159Z,4.93
2023-05-19T17:15:35.036Z,4.05
2023-05-19T17:18:01.696Z,4.03
2023-05-19T17:20:28.657Z,4.57
2023-05-19T17:22:55.458Z,4.80
2023-05-19T17:25:22.092Z,4.35
2023-05-19T17:27:48.741Z,4.10
2023-05-19T17:30:16.275Z,3.88
2023-05-19T17:32:43.007Z,3.90
2023-05-19T17:35:10.095Z,4.00
2023-05-19T17:37:37.182Z,4.63
2023-05-19T17:40:04.205Z,4.00
2023-05-19T17:42:31.710Z,4.22
2023-05-19T17:44:58.523Z,3.72
2023-05-19T17:47:25.241Z,4.50
2023-05-19T17:49:53.061Z,3.85
2023-05-19T17:52:20.603Z,3.10
2023-05-19T17:54:47.653Z,3.53
2023-05-19T17:57:15.950Z,4.53
2023-05-19T17:59:46.310Z,3.42
2023-05-19T18:02:15.157Z,3.30
2023-05-19T18:04:42.403Z,3.83
2023-05-19T18:07:09.353Z,4.47
2023-05-19T18:09:43.520Z,4.18
2023-05-19T18:14:36.667Z,4.53
2023-05-19T18:17:03.605Z,4.03
2023-05-19T18:19:30.375Z,4.10
2023-05-19T18:21:56.997Z,4.18
2023-05-19T18:24:23.665Z,4.10
2023-05-19T18:26:50.442Z,2.92
2023-05-19T18:29:17.085Z,3.75
2023-05-19T18:31:46.206Z,3.22
2023-05-19T18:34:14.036Z,3.17
2023-05-19T18:36:44.045Z,3.38
2023-05-19T18:39:10.806Z,3.72
2023-05-19T18:41:42.671Z,4.75
2023-05-19T18:44:12.234Z,3.63
2023-05-19T18:46:39.094Z,4.10
2023-05-19T18:49:05.754Z,4.15
2023-05-19T18:51:34.502Z,3.95
2023-05-19T18:54:01.111Z,4.57
2023-05-19T18:56:31.092Z,3.92
2023-05-19T18:58:58.175Z,4.00
2023-05-19T19:01:25.137Z,3.40
2023-05-19T19:03:51.905Z,3.30
2023-05-19T19:06:20.643Z,4.22
2023-05-19T19:08:47.419Z,4.03
2023-05-19T19:11:14.188Z,4.07
2023-05-19T19:13:43.932Z,4.32
2023-05-19T19:16:11.047Z,4.15
2023-05-19T19:18:37.870Z,4.97
2023-05-19T19:21:05.743Z,3.60
2023-05-19T19:23:32.808Z,4.15
2023-05-19T19:25:59.500Z,3.42
2023-05-19T19:28:26.469Z,3.92
2023-05-19T19:30:56.143Z,3.90
2023-05-19T19:33:22.788Z,4.32
2023-05-19T19:35:49.420Z,3.97
2023-05-19T19:38:16.168Z,3.90
2023-05-19T19:40:42.851Z,3.75
2023-05-19T19:43:09.592Z,5.18
2023-05-19T19:45:39.115Z,4.22
2023-05-19T19:48:07.308Z,4.13
2023-05-19T19:50:34.533Z,4.72
2023-05-19T19:53:01.540Z,4.88
2023-05-19T19:55:32.192Z,4.55
2023-05-19T19:57:58.791Z,4.80
2023-05-19T20:00:28.398Z,3.95
2023-05-19T20:03:05.113Z,4.47
2023-05-19T20:05:32.431Z,4.78
2023-05-19T20:07:59.251Z,4.72
2023-05-19T20:10:26.392Z,4.05
2023-05-19T20:12:53.127Z,3.95
2023-05-19T20:15:19.800Z,3.90
2023-05-19T20:17:49.355Z,4.55
2023-05-19T20:20:16.305Z,4.72
2023-05-19T20:22:45.968Z,4.20
2023-05-19T20:25:12.865Z,4.68
2023-05-19T20:27:39.585Z,4.38
2023-05-19T20:30:07.102Z,4.20
2023-05-19T20:32:33.978Z,4.10
2023-05-19T20:35:00.702Z,4.35
2023-05-19T20:37:27.379Z,4.60
2023-05-19T20:39:57.095Z,3.78
2023-05-19T20:42:23.685Z,4.35
2023-05-19T20:44:52.760Z,4.38
2023-05-19T20:47:19.918Z,3.50
2023-05-19T20:49:47.002Z,3.75
2023-05-19T20:52:15.234Z,3.53
2023-05-19T20:54:42.131Z,4.43
2023-05-19T20:57:09.384Z,4.07
2023-05-19T20:59:36.312Z,3.63
2023-05-19T21:02:02.877Z,4.05
2023-05-19T21:04:32.199Z,3.83
2023-05-19T21:06:59.592Z,3.17
2023-05-19T21:09:26.272Z,3.70
2023-05-19T21:11:55.351Z,3.58
2023-05-19T21:14:22.561Z,3.70
2023-05-19T21:16:49.928Z,3.95
2023-05-19T21:19:16.689Z,3.85
2023-05-19T21:21:44.836Z,4.05
2023-05-19T21:24:12.913Z,3.70
2023-05-19T21:26:40.999Z,3.70
2023-05-19T21:29:08.686Z,7.95
2023-05-19T21:31:35.982Z,6.05
2023-05-19T21:34:03.367Z,6.75
2023-05-19T21:36:30.346Z,8.55
2023-05-19T21:38:56.966Z,4.15
2023-05-19T21:41:23.630Z,4.32
2023-05-19T21:43:50.418Z,3.60
2023-05-19T21:46:17.096Z,3.17
2023-05-19T21:48:43.786Z,3.50
2023-05-19T21:51:10.641Z,4.35
2023-05-19T21:53:38.046Z,2.70
2023-05-19T21:56:04.921Z,3.78
2023-05-19T21:58:31.688Z,2.88
2023-05-19T22:00:59.377Z,2.80
2023-05-19T22:03:26.194Z,3.08
2023-05-19T22:05:54.395Z,2.83
2023-05-19T22:08:22.277Z,3.75
2023-05-19T22:10:50.965Z,3.53
2023-05-19T22:13:18.478Z,3.50
2023-05-19T22:15:45.132Z,3.22
2023-05-19T22:18:11.824Z,3.63
2023-05-19T22:20:38.646Z,4.15
2023-05-19T22:23:05.503Z,4.68
2023-05-19T22:25:32.180Z,4.90
2023-05-19T22:28:01.076Z,4.72
2023-05-19T22:30:27.972Z,4.93
2023-05-19T22:32:54.910Z,4.93
2023-05-19T22:35:21.778Z,5.38
2023-05-19T22:37:48.407Z,5.28
2023-05-19T22:40:15.100Z,4.97
2023-05-19T22:42:41.847Z,4.63
2023-05-19T22:45:09.243Z,4.22
2023-05-19T22:47:36.100Z,4.55
2023-05-19T22:50:03.004Z,4.63
2023-05-19T22:52:29.740Z,5.57
2023-05-19T22:54:56.301Z,4.97
2023-05-19T22:57:22.936Z,4.95
2023-05-19T22:59:49.537Z,5.20
2023-05-19T23:02:16.162Z,5.43
2023-05-19T23:04:42.867Z,5.05
2023-05-19T23:07:09.477Z,4.93
2023-05-19T23:09:36.095Z,4.60
2023-05-19T23:12:02.683Z,3.80
2023-05-19T23:14:29.287Z,4.50
2023-05-19T23:16:55.928Z,3.63
2023-05-19T23:19:22.870Z,3.15
2023-05-19T23:21:49.602Z,3.72
2023-05-19T23:24:16.227Z,4.60
2023-05-19T23:26:45.905Z,3.72
2023-05-19T23:29:13.235Z,5.00
2023-05-19T23:31:41.029Z,6.38
2023-05-19T23:34:08.167Z,7.30
2023-05-19T23:36:34.840Z,7.32
2023-05-19T23:39:06.917Z,5.32
2023-05-19T23:41:33.644Z,4.72
2023-05-19T23:44:00.324Z,3.97
2023-05-19T23:46:27.026Z,4.00
2023-05-19T23:48:53.829Z,4.50
2023-05-19T23:51:20.770Z,4.85
2023-05-19T23:53:47.359Z,4.70
2023-05-19T23:56:14.013Z,4.95
2023-05-19T23:58:40.857Z,5.00
